sensor_id;sensor_type;location;lat;lon;timestamp;P1;durP1;ratioP1;P2;durP2;ratioP2
56718;SDS011;42597;40.636;0.278;2024-03-02T00:00:25;13.65;;;6.63;;
56718;SDS011;42597;40.636;0.278;2024-03-02T00:02:53;11.00;;;6.90;;
56718;SDS011;42597;40.636;0.278;2024-03-02T00:05:22;15.80;;;9.75;;
56718;SDS011;42597;40.636;0.278;2024-03-02T00:10:44;11.00;;;7.28;;
56718;SDS011;42597;40.636;0.278;2024-03-02T00:15:48;13.77;;;6.50;;
56718;SDS011;42597;40.636;0.278;2024-03-02T00:18:20;12.35;;;7.10;;
56718;SDS011;42597;40.636;0.278;2024-03-02T00:20:48;14.45;;;6.07;;
56718;SDS011;42597;40.636;0.278;2024-03-02T00:23:27;10.88;;;6.47;;
56718;SDS011;42597;40.636;0.278;2024-03-02T00:25:58;9.88;;;5.78;;
56718;SDS011;42597;40.636;0.278;2024-03-02T00:28:27;13.63;;;6.70;;
56718;SDS011;42597;40.636;0.278;2024-03-02T00:31:05;10.43;;;5.28;;
56718;SDS011;42597;40.636;0.278;2024-03-02T00:33:47;11.70;;;6.63;;
56718;SDS011;42597;40.636;0.278;2024-03-02T00:36:20;12.10;;;7.60;;
56718;SDS011;42597;40.636;0.278;2024-03-02T00:38:55;12.85;;;6.80;;
56718;SDS011;42597;40.636;0.278;2024-03-02T00:41:29;11.02;;;5.80;;
56718;SDS011;42597;40.636;0.278;2024-03-02T00:44:05;12.25;;;6.75;;
56718;SDS011;42597;40.636;0.278;2024-03-02T00:46:42;10.30;;;5.00;;
56718;SDS011;42597;40.636;0.278;2024-03-02T00:51:49;7.82;;;4.80;;
56718;SDS011;42597;40.636;0.278;2024-03-02T00:54:26;10.85;;;6.68;;
56718;SDS011;42597;40.636;0.278;2024-03-02T00:56:53;8.93;;;4.75;;
56718;SDS011;42597;40.636;0.278;2024-03-02T00:59:26;7.65;;;4.80;;
56718;SDS011;42597;40.636;0.278;2024-03-02T01:01:54;7.75;;;4.68;;
56718;SDS011;42597;40.636;0.278;2024-03-02T01:04:22;12.38;;;7.55;;
56718;SDS011;42597;40.636;0.278;2024-03-02T01:06:50;22.08;;;13.13;;
56718;SDS011;42597;40.636;0.278;2024-03-02T01:09:16;13.25;;;7.35;;
56718;SDS011;42597;40.636;0.278;2024-03-02T01:11:48;16.67;;;9.48;;
56718;SDS011;42597;40.636;0.278;2024-03-02T01:14:14;7.22;;;3.95;;
56718;SDS011;42597;40.636;0.278;2024-03-02T01:16:41;10.27;;;5.97;;
56718;SDS011;42597;40.636;0.278;2024-03-02T01:19:11;7.57;;;4.40;;
56718;SDS011;42597;40.636;0.278;2024-03-02T01:21:42;10.32;;;5.85;;
56718;SDS011;42597;40.636;0.278;2024-03-02T01:24:09;11.55;;;5.57;;
56718;SDS011;42597;40.636;0.278;2024-03-02T01:26:36;9.85;;;5.28;;
56718;SDS011;42597;40.636;0.278;2024-03-02T01:29:05;8.43;;;4.35;;
56718;SDS011;42597;40.636;0.278;2024-03-02T01:31:33;3.70;;;1.90;;
56718;SDS011;42597;40.636;0.278;2024-03-02T01:34:11;4.55;;;2.78;;
56718;SDS011;42597;40.636;0.278;2024-03-02T01:36:38;5.10;;;1.98;;
56718;SDS011;42597;40.636;0.278;2024-03-02T01:39:05;4.97;;;2.58;;
56718;SDS011;42597;40.636;0.278;2024-03-02T01:44:01;5.40;;;2.90;;
56718;SDS011;42597;40.636;0.278;2024-03-02T01:46:28;7.07;;;1.92;;
56718;SDS011;42597;40.636;0.278;2024-03-02T01:48:57;10.00;;;2.75;;
56718;SDS011;42597;40.636;0.278;2024-03-02T01:51:30;5.63;;;2.20;;
56718;SDS011;42597;40.636;0.278;2024-03-02T01:53:59;6.47;;;3.20;;
56718;SDS011;42597;40.636;0.278;2024-03-02T01:56:25;5.82;;;2.60;;
56718;SDS011;42597;40.636;0.278;2024-03-02T01:58:54;5.97;;;2.35;;
56718;SDS011;42597;40.636;0.278;2024-03-02T02:01:21;5.20;;;2.22;;
56718;SDS011;42597;40.636;0.278;2024-03-02T02:03:51;7.35;;;3.25;;
56718;SDS011;42597;40.636;0.278;2024-03-02T02:06:23;8.52;;;4.43;;
56718;SDS011;42597;40.636;0.278;2024-03-02T02:08:56;9.10;;;4.72;;
56718;SDS011;42597;40.636;0.278;2024-03-02T02:11:25;7.35;;;4.20;;
56718;SDS011;42597;40.636;0.278;2024-03-02T02:13:52;7.18;;;4.35;;
56718;SDS011;42597;40.636;0.278;2024-03-02T02:16:24;8.50;;;4.07;;
56718;SDS011;42597;40.636;0.278;2024-03-02T02:18:50;12.50;;;4.78;;
56718;SDS011;42597;40.636;0.278;2024-03-02T02:21:17;7.47;;;3.95;;
56718;SDS011;42597;40.636;0.278;2024-03-02T02:23:45;8.73;;;3.58;;
56718;SDS011;42597;40.636;0.278;2024-03-02T02:26:13;6.70;;;4.25;;
56718;SDS011;42597;40.636;0.278;2024-03-02T02:28:39;4.78;;;2.60;;
56718;SDS011;42597;40.636;0.278;2024-03-02T02:31:15;7.55;;;3.05;;
56718;SDS011;42597;40.636;0.278;2024-03-02T02:33:43;5.43;;;2.58;;
56718;SDS011;42597;40.636;0.278;2024-03-02T02:38:47;5.05;;;2.45;;
56718;SDS011;42597;40.636;0.278;2024-03-02T02:41:20;9.40;;;4.55;;
56718;SDS011;42597;40.636;0.278;2024-03-02T02:43:51;5.45;;;2.90;;
56718;SDS011;42597;40.636;0.278;2024-03-02T02:46:19;5.97;;;2.47;;
56718;SDS011;42597;40.636;0.278;2024-03-02T02:48:46;5.85;;;3.22;;
56718;SDS011;42597;40.636;0.278;2024-03-02T02:51:12;6.28;;;3.25;;
56718;SDS011;42597;40.636;0.278;2024-03-02T02:53:38;8.32;;;2.50;;
56718;SDS011;42597;40.636;0.278;2024-03-02T02:56:07;4.32;;;2.22;;
56718;SDS011;42597;40.636;0.278;2024-03-02T02:58:32;5.60;;;2.95;;
56718;SDS011;42597;40.636;0.278;2024-03-02T03:00:58;5.15;;;2.75;;
56718;SDS011;42597;40.636;0.278;2024-03-02T03:03:24;5.00;;;2.55;;
56718;SDS011;42597;40.636;0.278;2024-03-02T03:05:50;7.43;;;2.92;;
56718;SDS011;42597;40.636;0.278;2024-03-02T03:08:15;6.75;;;3.17;;
56718;SDS011;42597;40.636;0.278;2024-03-02T03:10:41;6.75;;;2.80;;
56718;SDS011;42597;40.636;0.278;2024-03-02T03:13:07;6.90;;;2.58;;
56718;SDS011;42597;40.636;0.278;2024-03-02T03:15:37;6.00;;;3.45;;
56718;SDS011;42597;40.636;0.278;2024-03-02T03:18:03;4.32;;;2.13;;
56718;SDS011;42597;40.636;0.278;2024-03-02T03:20:30;6.15;;;2.65;;
56718;SDS011;42597;40.636;0.278;2024-03-02T03:22:56;5.18;;;2.28;;
56718;SDS011;42597;40.636;0.278;2024-03-02T03:25:23;5.90;;;2.60;;
56718;SDS011;42597;40.636;0.278;2024-03-02T03:27:48;9.18;;;4.00;;
56718;SDS011;42597;40.636;0.278;2024-03-02T03:30:14;7.05;;;3.50;;
56718;SDS011;42597;40.636;0.278;2024-03-02T03:32:40;7.30;;;3.28;;
56718;SDS011;42597;40.636;0.278;2024-03-02T03:35:06;5.65;;;2.50;;
56718;SDS011;42597;40.636;0.278;2024-03-02T03:37:32;5.75;;;2.90;;
56718;SDS011;42597;40.636;0.278;2024-03-02T03:40:01;5.55;;;2.38;;
56718;SDS011;42597;40.636;0.278;2024-03-02T03:42:28;6.28;;;2.97;;
56718;SDS011;42597;40.636;0.278;2024-03-02T03:44:54;4.32;;;2.00;;
56718;SDS011;42597;40.636;0.278;2024-03-02T03:47:20;5.13;;;2.35;;
56718;SDS011;42597;40.636;0.278;2024-03-02T03:49:45;4.60;;;1.90;;
56718;SDS011;42597;40.636;0.278;2024-03-02T03:52:11;4.20;;;2.10;;
56718;SDS011;42597;40.636;0.278;2024-03-02T03:54:37;4.50;;;2.53;;
56718;SDS011;42597;40.636;0.278;2024-03-02T03:57:05;5.40;;;2.17;;
56718;SDS011;42597;40.636;0.278;2024-03-02T03:59:31;5.65;;;3.28;;
56718;SDS011;42597;40.636;0.278;2024-03-02T04:01:56;3.88;;;2.00;;
56718;SDS011;42597;40.636;0.278;2024-03-02T04:04:22;4.63;;;1.90;;
56718;SDS011;42597;40.636;0.278;2024-03-02T04:06:47;3.30;;;1.95;;
56718;SDS011;42597;40.636;0.278;2024-03-02T04:09:13;4.20;;;2.17;;
56718;SDS011;42597;40.636;0.278;2024-03-02T04:11:39;3.92;;;2.13;;
56718;SDS011;42597;40.636;0.278;2024-03-02T04:14:04;2.78;;;1.60;;
56718;SDS011;42597;40.636;0.278;2024-03-02T04:16:31;3.92;;;2.17;;
56718;SDS011;42597;40.636;0.278;2024-03-02T04:18:56;4.38;;;2.22;;
56718;SDS011;42597;40.636;0.278;2024-03-02T04:21:22;5.68;;;2.83;;
56718;SDS011;42597;40.636;0.278;2024-03-02T04:23:48;5.40;;;2.72;;
56718;SDS011;42597;40.636;0.278;2024-03-02T04:26:13;3.75;;;2.10;;
56718;SDS011;42597;40.636;0.278;2024-03-02T04:28:40;3.28;;;1.88;;
56718;SDS011;42597;40.636;0.278;2024-03-02T04:31:05;3.92;;;2.00;;
56718;SDS011;42597;40.636;0.278;2024-03-02T04:33:31;5.28;;;2.42;;
56718;SDS011;42597;40.636;0.278;2024-03-02T04:35:56;3.97;;;2.13;;
56718;SDS011;42597;40.636;0.278;2024-03-02T04:38:22;3.70;;;1.80;;
56718;SDS011;42597;40.636;0.278;2024-03-02T04:40:48;3.35;;;1.92;;
56718;SDS011;42597;40.636;0.278;2024-03-02T04:43:14;3.95;;;1.88;;
56718;SDS011;42597;40.636;0.278;2024-03-02T04:45:41;3.35;;;1.77;;
56718;SDS011;42597;40.636;0.278;2024-03-02T04:48:07;3.05;;;1.50;;
56718;SDS011;42597;40.636;0.278;2024-03-02T04:50:33;5.10;;;2.58;;
56718;SDS011;42597;40.636;0.278;2024-03-02T04:52:58;3.10;;;1.48;;
56718;SDS011;42597;40.636;0.278;2024-03-02T04:55:24;3.20;;;1.48;;
56718;SDS011;42597;40.636;0.278;2024-03-02T04:58:10;5.30;;;1.90;;
56718;SDS011;42597;40.636;0.278;2024-03-02T05:00:35;3.58;;;1.90;;
56718;SDS011;42597;40.636;0.278;2024-03-02T05:03:01;3.50;;;1.95;;
56718;SDS011;42597;40.636;0.278;2024-03-02T05:05:28;5.50;;;1.83;;
56718;SDS011;42597;40.636;0.278;2024-03-02T05:07:53;4.20;;;1.77;;
56718;SDS011;42597;40.636;0.278;2024-03-02T05:10:19;4.03;;;1.55;;
56718;SDS011;42597;40.636;0.278;2024-03-02T05:12:45;4.32;;;1.83;;
56718;SDS011;42597;40.636;0.278;2024-03-02T05:15:11;3.75;;;1.60;;
56718;SDS011;42597;40.636;0.278;2024-03-02T05:17:38;3.97;;;1.80;;
56718;SDS011;42597;40.636;0.278;2024-03-02T05:20:07;3.65;;;1.75;;
56718;SDS011;42597;40.636;0.278;2024-03-02T05:22:33;4.03;;;2.20;;
56718;SDS011;42597;40.636;0.278;2024-03-02T05:25:00;3.35;;;1.88;;
56718;SDS011;42597;40.636;0.278;2024-03-02T05:27:26;3.83;;;1.20;;
56718;SDS011;42597;40.636;0.278;2024-03-02T05:29:52;3.10;;;1.27;;
56718;SDS011;42597;40.636;0.278;2024-03-02T05:32:18;2.97;;;1.50;;
56718;SDS011;42597;40.636;0.278;2024-03-02T05:34:43;3.63;;;2.25;;
56718;SDS011;42597;40.636;0.278;2024-03-02T05:37:09;3.28;;;1.30;;
56718;SDS011;42597;40.636;0.278;2024-03-02T05:39:34;3.00;;;1.13;;
56718;SDS011;42597;40.636;0.278;2024-03-02T05:42:00;5.63;;;2.50;;
56718;SDS011;42597;40.636;0.278;2024-03-02T05:44:25;2.78;;;1.33;;
56718;SDS011;42597;40.636;0.278;2024-03-02T05:46:51;3.35;;;1.88;;
56718;SDS011;42597;40.636;0.278;2024-03-02T05:49:17;4.13;;;1.95;;
56718;SDS011;42597;40.636;0.278;2024-03-02T05:51:43;2.38;;;1.63;;
56718;SDS011;42597;40.636;0.278;2024-03-02T05:54:09;4.63;;;1.67;;
56718;SDS011;42597;40.636;0.278;2024-03-02T05:56:34;3.90;;;2.03;;
56718;SDS011;42597;40.636;0.278;2024-03-02T05:59:00;3.22;;;1.55;;
56718;SDS011;42597;40.636;0.278;2024-03-02T06:01:37;3.20;;;1.70;;
56718;SDS011;42597;40.636;0.278;2024-03-02T06:04:13;2.90;;;1.50;;
56718;SDS011;42597;40.636;0.278;2024-03-02T06:06:39;3.42;;;1.50;;
56718;SDS011;42597;40.636;0.278;2024-03-02T06:09:05;2.35;;;1.23;;
56718;SDS011;42597;40.636;0.278;2024-03-02T06:11:38;3.40;;;1.67;;
56718;SDS011;42597;40.636;0.278;2024-03-02T06:14:05;6.88;;;2.10;;
56718;SDS011;42597;40.636;0.278;2024-03-02T06:16:33;2.35;;;1.33;;
56718;SDS011;42597;40.636;0.278;2024-03-02T06:18:59;1.95;;;1.20;;
56718;SDS011;42597;40.636;0.278;2024-03-02T06:21:25;4.53;;;1.58;;
56718;SDS011;42597;40.636;0.278;2024-03-02T06:23:51;2.40;;;1.52;;
56718;SDS011;42597;40.636;0.278;2024-03-02T06:26:17;2.60;;;1.55;;
56718;SDS011;42597;40.636;0.278;2024-03-02T06:28:43;1.63;;;1.20;;
56718;SDS011;42597;40.636;0.278;2024-03-02T06:31:09;3.92;;;2.05;;
56718;SDS011;42597;40.636;0.278;2024-03-02T06:33:34;3.40;;;1.73;;
56718;SDS011;42597;40.636;0.278;2024-03-02T06:36:00;3.40;;;1.75;;
56718;SDS011;42597;40.636;0.278;2024-03-02T06:38:26;2.65;;;1.35;;
56718;SDS011;42597;40.636;0.278;2024-03-02T06:40:52;3.30;;;1.85;;
56718;SDS011;42597;40.636;0.278;2024-03-02T06:43:17;3.13;;;1.73;;
56718;SDS011;42597;40.636;0.278;2024-03-02T06:45:43;3.40;;;1.60;;
56718;SDS011;42597;40.636;0.278;2024-03-02T06:48:09;2.72;;;1.40;;
56718;SDS011;42597;40.636;0.278;2024-03-02T06:50:34;5.95;;;1.70;;
56718;SDS011;42597;40.636;0.278;2024-03-02T06:53:00;3.13;;;1.40;;
56718;SDS011;42597;40.636;0.278;2024-03-02T06:55:25;6.68;;;2.17;;
56718;SDS011;42597;40.636;0.278;2024-03-02T06:57:51;5.53;;;1.90;;
56718;SDS011;42597;40.636;0.278;2024-03-02T07:00:19;4.50;;;1.50;;
56718;SDS011;42597;40.636;0.278;2024-03-02T07:02:45;2.97;;;1.55;;
56718;SDS011;42597;40.636;0.278;2024-03-02T07:05:11;4.43;;;1.40;;
56718;SDS011;42597;40.636;0.278;2024-03-02T07:07:37;5.40;;;1.85;;
56718;SDS011;42597;40.636;0.278;2024-03-02T07:10:05;3.30;;;1.40;;
56718;SDS011;42597;40.636;0.278;2024-03-02T07:12:32;3.40;;;1.52;;
56718;SDS011;42597;40.636;0.278;2024-03-02T07:14:58;2.63;;;1.48;;
56718;SDS011;42597;40.636;0.278;2024-03-02T07:17:29;2.90;;;1.58;;
56718;SDS011;42597;40.636;0.278;2024-03-02T07:19:56;6.05;;;2.83;;
56718;SDS011;42597;40.636;0.278;2024-03-02T07:22:22;3.97;;;2.25;;
56718;SDS011;42597;40.636;0.278;2024-03-02T07:24:48;4.25;;;2.03;;
56718;SDS011;42597;40.636;0.278;2024-03-02T07:27:14;6.55;;;1.67;;
56718;SDS011;42597;40.636;0.278;2024-03-02T07:29:41;2.38;;;1.70;;
56718;SDS011;42597;40.636;0.278;2024-03-02T07:32:07;4.32;;;1.67;;
56718;SDS011;42597;40.636;0.278;2024-03-02T07:34:33;3.90;;;1.63;;
56718;SDS011;42597;40.636;0.278;2024-03-02T07:36:59;3.60;;;1.67;;
56718;SDS011;42597;40.636;0.278;2024-03-02T07:39:25;5.45;;;1.92;;
56718;SDS011;42597;40.636;0.278;2024-03-02T07:41:51;3.15;;;2.05;;
56718;SDS011;42597;40.636;0.278;2024-03-02T07:44:17;4.97;;;2.72;;
56718;SDS011;42597;40.636;0.278;2024-03-02T07:46:44;7.35;;;3.83;;
56718;SDS011;42597;40.636;0.278;2024-03-02T07:49:17;3.10;;;1.92;;
56718;SDS011;42597;40.636;0.278;2024-03-02T07:51:43;2.85;;;1.77;;
56718;SDS011;42597;40.636;0.278;2024-03-02T07:54:09;5.20;;;2.17;;
56718;SDS011;42597;40.636;0.278;2024-03-02T07:56:35;3.50;;;1.70;;
56718;SDS011;42597;40.636;0.278;2024-03-02T07:59:01;5.85;;;2.85;;
56718;SDS011;42597;40.636;0.278;2024-03-02T08:01:30;6.50;;;3.90;;
56718;SDS011;42597;40.636;0.278;2024-03-02T08:04:00;5.55;;;2.20;;
56718;SDS011;42597;40.636;0.278;2024-03-02T08:06:28;2.95;;;1.45;;
56718;SDS011;42597;40.636;0.278;2024-03-02T08:08:57;5.00;;;1.80;;
56718;SDS011;42597;40.636;0.278;2024-03-02T08:11:24;3.40;;;1.80;;
56718;SDS011;42597;40.636;0.278;2024-03-02T08:13:49;8.10;;;3.80;;
56718;SDS011;42597;40.636;0.278;2024-03-02T08:16:17;6.78;;;3.53;;
56718;SDS011;42597;40.636;0.278;2024-03-02T08:18:46;3.95;;;2.20;;
56718;SDS011;42597;40.636;0.278;2024-03-02T08:21:15;12.13;;;6.18;;
56718;SDS011;42597;40.636;0.278;2024-03-02T08:23:41;7.45;;;3.55;;
56718;SDS011;42597;40.636;0.278;2024-03-02T08:26:10;6.32;;;2.88;;
56718;SDS011;42597;40.636;0.278;2024-03-02T08:28:36;3.58;;;1.90;;
56718;SDS011;42597;40.636;0.278;2024-03-02T08:31:02;11.88;;;4.53;;
56718;SDS011;42597;40.636;0.278;2024-03-02T08:33:28;18.60;;;7.68;;
56718;SDS011;42597;40.636;0.278;2024-03-02T08:35:54;15.52;;;7.50;;
56718;SDS011;42597;40.636;0.278;2024-03-02T08:38:20;5.05;;;2.05;;
56718;SDS011;42597;40.636;0.278;2024-03-02T08:40:46;3.33;;;1.50;;
56718;SDS011;42597;40.636;0.278;2024-03-02T08:43:12;10.70;;;5.88;;
56718;SDS011;42597;40.636;0.278;2024-03-02T08:45:38;4.35;;;1.80;;
56718;SDS011;42597;40.636;0.278;2024-03-02T08:48:05;4.70;;;1.73;;
56718;SDS011;42597;40.636;0.278;2024-03-02T08:50:33;2.00;;;1.10;;
56718;SDS011;42597;40.636;0.278;2024-03-02T08:52:59;4.10;;;1.27;;
56718;SDS011;42597;40.636;0.278;2024-03-02T08:55:25;2.53;;;0.90;;
56718;SDS011;42597;40.636;0.278;2024-03-02T08:57:50;3.95;;;1.25;;
56718;SDS011;42597;40.636;0.278;2024-03-02T09:00:16;1.88;;;1.30;;
56718;SDS011;42597;40.636;0.278;2024-03-02T09:02:45;3.83;;;1.60;;
56718;SDS011;42597;40.636;0.278;2024-03-02T09:05:11;2.28;;;1.00;;
56718;SDS011;42597;40.636;0.278;2024-03-02T09:07:37;1.95;;;1.00;;
56718;SDS011;42597;40.636;0.278;2024-03-02T09:10:06;4.03;;;0.90;;
56718;SDS011;42597;40.636;0.278;2024-03-02T09:12:33;2.28;;;0.80;;
56718;SDS011;42597;40.636;0.278;2024-03-02T09:15:02;1.10;;;0.80;;
56718;SDS011;42597;40.636;0.278;2024-03-02T09:17:33;1.08;;;0.85;;
56718;SDS011;42597;40.636;0.278;2024-03-02T09:19:59;4.30;;;1.00;;
56718;SDS011;42597;40.636;0.278;2024-03-02T09:22:25;1.35;;;0.85;;
56718;SDS011;42597;40.636;0.278;2024-03-02T09:24:51;0.60;;;0.60;;
56718;SDS011;42597;40.636;0.278;2024-03-02T09:27:16;2.03;;;1.13;;
56718;SDS011;42597;40.636;0.278;2024-03-02T09:29:42;2.97;;;0.88;;
56718;SDS011;42597;40.636;0.278;2024-03-02T09:32:08;1.85;;;0.93;;
56718;SDS011;42597;40.636;0.278;2024-03-02T09:34:37;1.88;;;1.08;;
56718;SDS011;42597;40.636;0.278;2024-03-02T09:37:03;1.88;;;1.02;;
56718;SDS011;42597;40.636;0.278;2024-03-02T09:39:29;2.85;;;1.00;;
56718;SDS011;42597;40.636;0.278;2024-03-02T09:41:55;2.08;;;0.90;;
56718;SDS011;42597;40.636;0.278;2024-03-02T09:44:21;3.92;;;1.35;;
56718;SDS011;42597;40.636;0.278;2024-03-02T09:46:50;3.13;;;1.38;;
56718;SDS011;42597;40.636;0.278;2024-03-02T09:49:16;2.75;;;1.17;;
56718;SDS011;42597;40.636;0.278;2024-03-02T09:51:48;1.38;;;0.80;;
56718;SDS011;42597;40.636;0.278;2024-03-02T09:54:17;3.42;;;1.38;;
56718;SDS011;42597;40.636;0.278;2024-03-02T09:56:43;2.33;;;1.13;;
56718;SDS011;42597;40.636;0.278;2024-03-02T09:59:09;0.47;;;0.43;;
56718;SDS011;42597;40.636;0.278;2024-03-02T10:01:35;9.15;;;1.48;;
56718;SDS011;42597;40.636;0.278;2024-03-02T10:04:01;2.08;;;1.05;;
56718;SDS011;42597;40.636;0.278;2024-03-02T10:06:29;1.52;;;0.90;;
56718;SDS011;42597;40.636;0.278;2024-03-02T10:08:55;1.13;;;0.50;;
56718;SDS011;42597;40.636;0.278;2024-03-02T10:11:28;0.55;;;0.50;;
56718;SDS011;42597;40.636;0.278;2024-03-02T10:14:09;2.33;;;1.17;;
56718;SDS011;42597;40.636;0.278;2024-03-02T10:16:36;1.85;;;1.13;;
56718;SDS011;42597;40.636;0.278;2024-03-02T10:19:15;1.48;;;0.88;;
56718;SDS011;42597;40.636;0.278;2024-03-02T10:21:55;1.48;;;0.80;;
56718;SDS011;42597;40.636;0.278;2024-03-02T10:24:23;1.17;;;0.68;;
56718;SDS011;42597;40.636;0.278;2024-03-02T10:26:50;0.75;;;0.60;;
56718;SDS011;42597;40.636;0.278;2024-03-02T10:29:16;1.13;;;0.70;;
56718;SDS011;42597;40.636;0.278;2024-03-02T10:31:43;1.88;;;1.05;;
56718;SDS011;42597;40.636;0.278;2024-03-02T10:34:11;3.03;;;1.35;;
56718;SDS011;42597;40.636;0.278;2024-03-02T10:36:37;1.90;;;1.00;;
56718;SDS011;42597;40.636;0.278;2024-03-02T10:41:33;0.93;;;0.70;;
56718;SDS011;42597;40.636;0.278;2024-03-02T10:44:01;1.60;;;0.85;;
56718;SDS011;42597;40.636;0.278;2024-03-02T10:46:31;1.80;;;1.10;;
56718;SDS011;42597;40.636;0.278;2024-03-02T10:48:59;5.72;;;2.95;;
56718;SDS011;42597;40.636;0.278;2024-03-02T10:51:26;1.83;;;1.17;;
56718;SDS011;42597;40.636;0.278;2024-03-02T10:53:54;2.55;;;1.13;;
56718;SDS011;42597;40.636;0.278;2024-03-02T10:56:33;5.07;;;1.65;;
56718;SDS011;42597;40.636;0.278;2024-03-02T11:01:41;2.00;;;1.00;;
56718;SDS011;42597;40.636;0.278;2024-03-02T11:04:08;5.15;;;2.42;;
56718;SDS011;42597;40.636;0.278;2024-03-02T11:06:37;4.25;;;1.58;;
56718;SDS011;42597;40.636;0.278;2024-03-02T11:09:06;2.92;;;1.33;;
56718;SDS011;42597;40.636;0.278;2024-03-02T11:11:40;4.63;;;1.73;;
56718;SDS011;42597;40.636;0.278;2024-03-02T11:14:10;3.50;;;1.42;;
56718;SDS011;42597;40.636;0.278;2024-03-02T11:16:38;5.68;;;2.20;;
56718;SDS011;42597;40.636;0.278;2024-03-02T11:19:06;4.45;;;2.20;;
56718;SDS011;42597;40.636;0.278;2024-03-02T11:21:35;3.20;;;1.27;;
56718;SDS011;42597;40.636;0.278;2024-03-02T11:24:27;2.72;;;1.40;;
56718;SDS011;42597;40.636;0.278;2024-03-02T11:26:46;2.08;;;1.13;;
56718;SDS011;42597;40.636;0.278;2024-03-02T11:29:57;1.40;;;0.80;;
56718;SDS011;42597;40.636;0.278;2024-03-02T11:32:01;2.03;;;1.08;;
56718;SDS011;42597;40.636;0.278;2024-03-02T11:34:33;1.27;;;0.93;;
56718;SDS011;42597;40.636;0.278;2024-03-02T11:37:03;23.42;;;17.65;;
56718;SDS011;42597;40.636;0.278;2024-03-02T11:41:55;38.13;;;24.80;;
56718;SDS011;42597;40.636;0.278;2024-03-02T11:44:22;13.48;;;9.75;;
56718;SDS011;42597;40.636;0.278;2024-03-02T11:47:10;13.40;;;10.55;;
56718;SDS011;42597;40.636;0.278;2024-03-02T11:49:39;11.63;;;7.85;;
56718;SDS011;42597;40.636;0.278;2024-03-02T11:52:09;15.48;;;11.23;;
56718;SDS011;42597;40.636;0.278;2024-03-02T11:54:40;12.90;;;9.05;;
56718;SDS011;42597;40.636;0.278;2024-03-02T11:57:11;14.52;;;12.02;;
56718;SDS011;42597;40.636;0.278;2024-03-02T11:59:39;7.97;;;4.45;;
56718;SDS011;42597;40.636;0.278;2024-03-02T12:02:04;3.17;;;1.45;;
56718;SDS011;42597;40.636;0.278;2024-03-02T12:04:30;10.70;;;7.85;;
56718;SDS011;42597;40.636;0.278;2024-03-02T12:06:56;7.68;;;5.65;;
56718;SDS011;42597;40.636;0.278;2024-03-02T12:09:27;4.72;;;3.28;;
56718;SDS011;42597;40.636;0.278;2024-03-02T12:14:32;5.32;;;3.55;;
56718;SDS011;42597;40.636;0.278;2024-03-02T12:16:59;7.97;;;6.30;;
56718;SDS011;42597;40.636;0.278;2024-03-02T12:19:25;8.45;;;4.47;;
56718;SDS011;42597;40.636;0.278;2024-03-02T12:21:52;6.43;;;2.78;;
56718;SDS011;42597;40.636;0.278;2024-03-02T12:24:26;5.72;;;2.15;;
56718;SDS011;42597;40.636;0.278;2024-03-02T12:26:53;7.25;;;3.72;;
56718;SDS011;42597;40.636;0.278;2024-03-02T12:29:20;3.20;;;1.90;;
56718;SDS011;42597;40.636;0.278;2024-03-02T12:31:49;6.55;;;5.00;;
56718;SDS011;42597;40.636;0.278;2024-03-02T12:34:16;5.05;;;2.45;;
56718;SDS011;42597;40.636;0.278;2024-03-02T12:36:42;3.05;;;1.75;;
56718;SDS011;42597;40.636;0.278;2024-03-02T12:39:09;4.65;;;2.22;;
56718;SDS011;42597;40.636;0.278;2024-03-02T12:41:37;4.40;;;2.35;;
56718;SDS011;42597;40.636;0.278;2024-03-02T12:44:03;2.45;;;1.23;;
56718;SDS011;42597;40.636;0.278;2024-03-02T12:46:32;5.80;;;2.83;;
56718;SDS011;42597;40.636;0.278;2024-03-02T12:49:05;5.53;;;2.88;;
56718;SDS011;42597;40.636;0.278;2024-03-02T12:51:34;4.43;;;2.40;;
56718;SDS011;42597;40.636;0.278;2024-03-02T12:54:00;7.40;;;3.70;;
56718;SDS011;42597;40.636;0.278;2024-03-02T12:56:26;7.78;;;5.13;;
56718;SDS011;42597;40.636;0.278;2024-03-02T12:58:53;9.57;;;5.82;;
56718;SDS011;42597;40.636;0.278;2024-03-02T13:01:19;4.97;;;2.45;;
56718;SDS011;42597;40.636;0.278;2024-03-02T13:03:45;4.43;;;2.20;;
56718;SDS011;42597;40.636;0.278;2024-03-02T13:06:14;6.85;;;3.38;;
56718;SDS011;42597;40.636;0.278;2024-03-02T13:08:42;10.45;;;6.13;;
56718;SDS011;42597;40.636;0.278;2024-03-02T13:11:08;4.00;;;1.80;;
56718;SDS011;42597;40.636;0.278;2024-03-02T13:13:34;3.58;;;2.15;;
56718;SDS011;42597;40.636;0.278;2024-03-02T13:16:00;3.65;;;1.45;;
56718;SDS011;42597;40.636;0.278;2024-03-02T13:18:25;3.38;;;1.52;;
56718;SDS011;42597;40.636;0.278;2024-03-02T13:20:52;6.82;;;1.75;;
56718;SDS011;42597;40.636;0.278;2024-03-02T13:23:17;2.70;;;1.58;;
56718;SDS011;42597;40.636;0.278;2024-03-02T13:25:43;3.22;;;1.38;;
56718;SDS011;42597;40.636;0.278;2024-03-02T13:28:08;4.45;;;1.70;;
56718;SDS011;42597;40.636;0.278;2024-03-02T13:30:34;3.78;;;1.50;;
56718;SDS011;42597;40.636;0.278;2024-03-02T13:33:00;3.20;;;1.45;;
56718;SDS011;42597;40.636;0.278;2024-03-02T13:35:25;3.53;;;1.52;;
56718;SDS011;42597;40.636;0.278;2024-03-02T13:37:51;3.10;;;1.20;;
56718;SDS011;42597;40.636;0.278;2024-03-02T13:40:16;3.90;;;1.65;;
56718;SDS011;42597;40.636;0.278;2024-03-02T13:42:47;4.07;;;2.03;;
56718;SDS011;42597;40.636;0.278;2024-03-02T13:45:14;3.33;;;1.30;;
56718;SDS011;42597;40.636;0.278;2024-03-02T13:47:39;2.90;;;1.20;;
56718;SDS011;42597;40.636;0.278;2024-03-02T13:50:05;4.55;;;1.83;;
56718;SDS011;42597;40.636;0.278;2024-03-02T13:52:32;3.10;;;1.38;;
56718;SDS011;42597;40.636;0.278;2024-03-02T13:54:58;3.95;;;1.30;;
56718;SDS011;42597;40.636;0.278;2024-03-02T13:57:23;5.60;;;1.95;;
56718;SDS011;42597;40.636;0.278;2024-03-02T13:59:49;4.07;;;1.55;;
56718;SDS011;42597;40.636;0.278;2024-03-02T14:02:15;4.13;;;1.75;;
56718;SDS011;42597;40.636;0.278;2024-03-02T14:04:41;1.65;;;0.93;;
56718;SDS011;42597;40.636;0.278;2024-03-02T14:07:06;2.00;;;0.70;;
56718;SDS011;42597;40.636;0.278;2024-03-02T14:09:32;4.25;;;2.05;;
56718;SDS011;42597;40.636;0.278;2024-03-02T14:11:58;4.00;;;1.60;;
56718;SDS011;42597;40.636;0.278;2024-03-02T14:14:25;2.00;;;1.08;;
56718;SDS011;42597;40.636;0.278;2024-03-02T14:16:52;1.42;;;1.02;;
56718;SDS011;42597;40.636;0.278;2024-03-02T14:19:18;2.65;;;0.95;;
56718;SDS011;42597;40.636;0.278;2024-03-02T14:21:43;2.88;;;1.48;;
56718;SDS011;42597;40.636;0.278;2024-03-02T14:24:09;3.80;;;2.10;;
56718;SDS011;42597;40.636;0.278;2024-03-02T14:26:35;4.07;;;1.73;;
56718;SDS011;42597;40.636;0.278;2024-03-02T14:29:02;2.67;;;1.20;;
56718;SDS011;42597;40.636;0.278;2024-03-02T14:31:28;7.95;;;3.88;;
56718;SDS011;42597;40.636;0.278;2024-03-02T14:33:54;3.83;;;1.75;;
56718;SDS011;42597;40.636;0.278;2024-03-02T14:36:20;2.28;;;1.20;;
56718;SDS011;42597;40.636;0.278;2024-03-02T14:38:46;3.22;;;1.38;;
56718;SDS011;42597;40.636;0.278;2024-03-02T14:41:11;2.92;;;1.35;;
56718;SDS011;42597;40.636;0.278;2024-03-02T14:43:38;5.35;;;3.03;;
56718;SDS011;42597;40.636;0.278;2024-03-02T14:46:04;4.47;;;2.13;;
56718;SDS011;42597;40.636;0.278;2024-03-02T14:48:31;5.45;;;2.50;;
56718;SDS011;42597;40.636;0.278;2024-03-02T14:50:56;3.40;;;1.48;;
56718;SDS011;42597;40.636;0.278;2024-03-02T14:53:22;5.43;;;1.83;;
56718;SDS011;42597;40.636;0.278;2024-03-02T14:55:48;3.80;;;1.58;;
56718;SDS011;42597;40.636;0.278;2024-03-02T14:58:14;2.08;;;0.90;;
56718;SDS011;42597;40.636;0.278;2024-03-02T15:00:41;6.15;;;1.33;;
56718;SDS011;42597;40.636;0.278;2024-03-02T15:03:06;2.83;;;1.38;;
56718;SDS011;42597;40.636;0.278;2024-03-02T15:05:34;2.05;;;1.13;;
56718;SDS011;42597;40.636;0.278;2024-03-02T15:08:00;3.75;;;2.03;;
56718;SDS011;42597;40.636;0.278;2024-03-02T15:10:27;3.92;;;1.63;;